Buoy 41991

sailwx.info

Track history (hours):
 
Tides and Currents Weather Stations Pressure Air Temp Water Temp Dewpoint Dewpoint Depression Visibility Wind Speed Wind Dir Waves Ship Positions

Drifting buoy 41991

Last reported at 2015-Jan-31 21:33 UTC. Time now 2015-Jan-31 22:42 UTC.
Position N 29°58' W 044°17'.

Water temperature 21.5 ° C

Date/timePositionNaut miles runAvg speedWind from/ knotsBaromVisibWave heightAir tempDewpointWater temp
2015-Jan-31 21:33N 29°58' W 044°17'0 2.9 21.5
2015-Jan-31 21:24N 29°58' W 044°17'0 0.5 21.5
2015-Jan-31 20:46N 29°58' W 044°18'0 0.0 21.6
2015-Jan-31 19:51N 29°58' W 044°18'0 2.1 21.6
2015-Jan-31 19:48N 29°58' W 044°17'0 0.3 21.6
2015-Jan-31 19:05N 29°58' W 044°17'0 0.3 21.6
2015-Jan-31 18:13N 29°59' W 044°18'1 6.5 21.6
2015-Jan-31 18:06N 29°59' W 044°17'0 0.0 21.6
2015-Jan-31 16:35N 29°59' W 044°17'2 1.2 21.6
2015-Jan-31 14:50N 30°01' W 044°18'0 0.0 21.5
2015-Jan-31 14:28N 30°01' W 044°18'0 0.0 21.5
2015-Jan-31 13:37N 30°01' W 044°18'0 0.0 21.5
2015-Jan-31 12:50N 30°01' W 044°18'0 4.0 21.5
2015-Jan-31 12:45N 30°01' W 044°17'0 3.8 21.5
2015-Jan-31 12:40N 30°01' W 044°18'1 1.0 21.5
2015-Jan-31 11:50N 30°02' W 044°18'0 0.2 21.5
2015-Jan-31 09:59N 30°02' W 044°17'0 0.0 21.5
2015-Jan-31 09:29N 30°02' W 044°17'0 0.0 21.5
2015-Jan-31 09:25N 30°02' W 044°17'0 3.6 21.5
2015-Jan-31 09:22N 30°02' W 044°17'0 2.1 21.5
2015-Jan-31 09:13N 30°02' W 044°18'0 0.4 21.5
2015-Jan-31 08:21N 30°02' W 044°17'1 7.8 21.4
2015-Jan-31 08:17N 30°03' W 044°18'0 0.0 21.4
2015-Jan-31 07:49N 30°03' W 044°18'0 0.7 21.4
2015-Jan-31 07:35N 30°03' W 044°17'0 0.1 21.4
2015-Jan-31 06:52N 30°03' W 044°17'0 2.4 21.4
2015-Jan-31 06:43N 30°03' W 044°17'1 0.4 21.4
2015-Jan-31 05:08N 30°04' W 044°17'1 0.9 21.4
2015-Jan-31 03:28N 30°05' W 044°16'1 0.4 21.4
2015-Jan-31 01:13N 30°06' W 044°16'110.5 21.3
2015-Jan-31 01:08N 30°07' W 044°17'0 0.0 21.3
2015-Jan-31 00:27N 30°07' W 044°17'0 0.0 21.3
2015-Jan-30 23:35N 30°07' W 044°17'1 6.5 21.3
2015-Jan-30 23:29N 30°07' W 044°17'0 0.0 21.3
2015-Jan-30 22:47N 30°07' W 044°17'1 6.9 21.2
2015-Jan-30 22:41N 30°07' W 044°16'0 0.0 21.2
2015-Jan-30 21:59N 30°07' W 044°16'1 0.6 21.2
2015-Jan-30 21:10N 30°08' W 044°16'0 0.4 21.3
2015-Jan-30 20:22N 30°08' W 044°17'1 6.8 21.3
2015-Jan-30 20:15N 30°08' W 044°16'0 0.3 21.3
2015-Jan-30 19:57N 30°08' W 044°16'1 1.4 21.3
2015-Jan-30 19:32N 30°08' W 044°16'116.6 21.3
2015-Jan-30 19:29N 30°08' W 044°16'0 0.2 21.3
2015-Jan-30 18:25N 30°08' W 044°16'2 9.9 21.3
2015-Jan-30 18:14N 30°10' W 044°15'0 0.0 21.4
2015-Jan-30 16:45N 30°10' W 044°15'0 0.0 21.3
2015-Jan-30 16:39N 30°10' W 044°15'0 0.0 21.3
2015-Jan-30 14:58N 30°10' W 044°15'1 1.1 21.3
2015-Jan-30 13:57N 30°11' W 044°14'0 0.0 21.3
2015-Jan-30 13:11N 30°11' W 044°14'2 2.1 21.3
2015-Jan-30 12:12N 30°13' W 044°15'0 0.2 21.3
2015-Jan-30 11:29N 30°13' W 044°14'1 0.3 21.3
2015-Jan-30 09:49N 30°13' W 044°15'117.4 21.3
2015-Jan-30 09:47N 30°13' W 044°14'1 0.4 21.3
2015-Jan-30 08:32N 30°13' W 044°15'0 6.3 21.3
2015-Jan-30 08:29N 30°14' W 044°14'0 0.0 21.3
2015-Jan-30 08:11N 30°14' W 044°14'0 0.0 21.4
2015-Jan-30 08:06N 30°14' W 044°14'1 0.7 21.4
2015-Jan-30 06:58N 30°14' W 044°15'0 0.3 21.4
2015-Jan-30 05:20N 30°15' W 044°15'1 7.1 21.4
2015-Jan-30 05:13N 30°15' W 044°14'0 0.0 21.4
2015-Jan-30 03:40N 30°15' W 044°14'2 0.9 21.4
2015-Jan-30 01:28N 30°17' W 044°13'0 0.0 21.4
2015-Jan-30 00:45N 30°17' W 044°13'1 0.9 21.4
2015-Jan-29 23:55N 30°17' W 044°14'0 3.2 21.4
2015-Jan-29 23:52N 30°17' W 044°14'1 1.0 21.4
2015-Jan-29 23:07N 30°17' W 044°13'0 5.7 21.4
2015-Jan-29 23:02N 30°17' W 044°12'0 0.0 21.4
2015-Jan-29 22:58N 30°17' W 044°12'0 0.0 21.4
2015-Jan-29 22:33N 30°17' W 044°12'0 0.4 21.4
2015-Jan-29 21:34N 30°18' W 044°12'1 1.0 21.4
2015-Jan-29 20:57N 30°18' W 044°12'1 1.1 21.4
2015-Jan-29 20:11N 30°19' W 044°11'0 0.0 21.4
2015-Jan-29 19:56N 30°19' W 044°11'115.0 21.4
2015-Jan-29 19:51N 30°20' W 044°11'0 0.0 21.4
2015-Jan-29 18:33N 30°20' W 044°11'0 4.6
2015-Jan-29 18:29N 30°20' W 044°11'1 3.8 21.4
2015-Jan-29 18:13N 30°21' W 044°10'0 0.0 21.4
2015-Jan-29 16:56N 30°21' W 044°10'3 1.7 21.4
2015-Jan-29 15:13N 30°24' W 044°09'0 0.0 21.4
2015-Jan-29 14:18N 30°24' W 044°09'0 0.0 21.3
2015-Jan-29 13:29N 30°24' W 044°09'1 7.0 21.3
2015-Jan-29 13:22N 30°24' W 044°10'1 1.2 21.3
2015-Jan-29 12:29N 30°25' W 044°10'0 0.1 21.3
2015-Jan-29 10:19N 30°25' W 044°10'115.8 21.3
2015-Jan-29 10:15N 30°26' W 044°09'0 0.0 21.3
2015-Jan-29 08:46N 30°26' W 044°09'0 0.0 21.3
2015-Jan-29 08:39N 30°26' W 044°09'1 0.7 21.3
2015-Jan-29 07:11N 30°27' W 044°09'0 1.2 21.3
2015-Jan-29 07:08N 30°27' W 044°09'1 6.4 21.3
2015-Jan-29 06:59N 30°28' W 044°08'0 0.0 21.3
2015-Jan-29 05:31N 30°28' W 044°08'3 1.9 21.3
2015-Jan-29 03:50N 30°31' W 044°08'0 0.0 21.3
2015-Jan-29 01:54N 30°31' W 044°08'0 0.0 21.3
2015-Jan-29 01:06N 30°31' W 044°08'112.9 21.3
2015-Jan-29 01:02N 30°31' W 044°07'0 0.1 21.3
2015-Jan-29 00:12N 30°31' W 044°07'1 1.1 21.3
2015-Jan-28 23:26N 30°32' W 044°08'0 5.1 21.3
2015-Jan-28 23:22N 30°32' W 044°07'0 0.0 21.3
2015-Jan-28 23:03N 30°32' W 044°07'0 0.9 21.3
2015-Jan-28 22:34N 30°32' W 044°08'243.1 21.3
2015-Jan-28 22:31N 30°34' W 044°06'0 0.3 21.3
2015-Jan-28 21:57N 30°34' W 044°06'0 0.0 21.3
2015-Jan-28 21:28N 30°34' W 044°06'0 0.2 21.3
2015-Jan-28 20:22N 30°34' W 044°06'134.2 21.3
2015-Jan-28 20:20N 30°35' W 044°06'0 0.0 21.3
2015-Jan-28 19:45N 30°35' W 044°06'1 1.0 21.3
2015-Jan-28 18:41N 30°35' W 044°05'0 0.0 21.3
2015-Jan-28 17:08N 30°35' W 044°05'1 0.7 21.3
2015-Jan-28 15:26N 30°37' W 044°05'1 0.9 21.3
2015-Jan-28 14:34N 30°37' W 044°05'0 0.3 21.3
2015-Jan-28 13:50N 30°38' W 044°05'1 1.2 21.3
2015-Jan-28 12:53N 30°39' W 044°05'2 1.1 21.3
2015-Jan-28 11:11N 30°40' W 044°04'0 0.0 21.2
2015-Jan-28 10:39N 30°40' W 044°04'0 0.0 21.2
2015-Jan-28 09:10N 30°40' W 044°04'0 2.1 21.2
2015-Jan-28 08:57N 30°40' W 044°04'117.6 21.2
2015-Jan-28 08:52N 30°42' W 044°03'0 0.0 21.2
2015-Jan-28 07:30N 30°42' W 044°03'1 3.1 21.2
2015-Jan-28 07:09N 30°43' W 044°03'0 0.0 21.2
2015-Jan-28 05:41N 30°43' W 044°03'1 0.8 21.2
2015-Jan-28 03:58N 30°44' W 044°04'122.3 21.2
2015-Jan-28 03:56N 30°44' W 044°03'0 0.0 21.2
2015-Jan-28 02:11N 30°44' W 044°03'0 0.0 21.3
2015-Jan-28 01:28N 30°44' W 044°03'0 0.5 21.2
2015-Jan-28 00:34N 30°44' W 044°03'1 0.7 21.3
2015-Jan-27 23:46N 30°45' W 044°03'0 0.0 21.3
2015-Jan-27 23:41N 30°45' W 044°03'0 0.0 21.3
2015-Jan-27 22:55N 30°45' W 044°03'1 0.7 21.3
2015-Jan-27 21:58N 30°45' W 044°03'1 0.8 21.3
2015-Jan-27 20:46N 30°46' W 044°02'0 1.1 21.3
2015-Jan-27 20:30N 30°46' W 044°02'0 0.0 21.3
2015-Jan-27 20:12N 30°46' W 044°02'018.9 21.3
2015-Jan-27 20:11N 30°46' W 044°02'121.7 21.3
2015-Jan-27 20:09N 30°47' W 044°02'0 0.1 21.3
2015-Jan-27 19:06N 30°47' W 044°02'1 7.4 21.3
2015-Jan-27 18:54N 30°48' W 044°01'0 0.1 21.3
2015-Jan-27 17:19N 30°48' W 044°01'1 0.7 21.3
2015-Jan-27 15:38N 30°49' W 044°01'1 0.7 21.3
2015-Jan-27 14:10N 30°50' W 044°00'1 0.3 21.2
2015-Jan-27 12:30N 30°50' W 043°60'1 9.8 21.2
2015-Jan-27 12:23N 30°51' W 044°00'0 0.2 21.2
2015-Jan-27 11:35N 30°52' W 044°00'117.6 21.2
2015-Jan-27 11:32N 30°52' W 044°00'0 0.0 21.2
2015-Jan-27 09:37N 30°52' W 044°00'0 0.3 21.1
2015-Jan-27 09:23N 30°52' W 044°00'0 0.0 21.1
2015-Jan-27 09:07N 30°52' W 044°00'110.8 21.1
2015-Jan-27 09:04N 30°53' W 044°00'0 0.0 21.1
2015-Jan-27 07:58N 30°53' W 044°00'0 0.5 21.1
2015-Jan-27 07:29N 30°53' W 044°00'1 5.4 21.1
2015-Jan-27 07:22N 30°54' W 043°60'0 0.1 21.1
2015-Jan-27 05:53N 30°54' W 043°59'1 0.5 21.1
2015-Jan-27 04:11N 30°54' W 043°60'220.8 21.2
2015-Jan-27 04:06N 30°55' W 043°58'0 0.0 21.2
2015-Jan-27 00:57N 30°55' W 043°58'1 0.8 21.2
2015-Jan-27 00:10N 30°55' W 043°58'0 0.0 21.3
2015-Jan-27 00:09N 30°55' W 043°58'1 1.0 21.3
2015-Jan-26 23:12N 30°55' W 043°58'0 8.2 21.3
2015-Jan-26 23:10N 30°55' W 043°57'0 0.0 21.3
2015-Jan-26 22:29N 30°55' W 043°57'1 9.5 21.3
2015-Jan-26 22:25N 30°56' W 043°57'0 0.0 21.3
2015-Jan-26 21:10N 30°56' W 043°57'0 0.4 21.2
2015-Jan-26 20:44N 30°56' W 043°57'0 5.9 21.3
2015-Jan-26 20:40N 30°56' W 043°57'0 0.0 21.3
2015-Jan-26 19:30N 30°56' W 043°57'0 7.8 21.3
2015-Jan-26 19:27N 30°56' W 043°57'0 0.0 21.3
2015-Jan-26 19:05N 30°56' W 043°57'1 0.7 21.3
2015-Jan-26 17:29N 30°57' W 043°56'1 0.3 21.4
2015-Jan-26 15:49N 30°57' W 043°56'1 0.5 21.4
2015-Jan-26 14:27N 30°57' W 043°55'1 0.9 21.3
2015-Jan-26 13:41N 30°58' W 043°54'0 0.6 21.2
2015-Jan-26 12:54N 30°58' W 043°54'1 5.1 21.2
2015-Jan-26 12:46N 30°59' W 043°55'0 0.0 21.2
2015-Jan-26 11:57N 30°59' W 043°55'110.2 21.2
2015-Jan-26 11:52N 30°60' W 043°54'0 0.0 21.2
2015-Jan-26 11:06N 30°60' W 043°54'0 0.0 21.2
2015-Jan-26 10:12N 30°60' W 043°54'0 0.6 21.2
2015-Jan-26 09:54N 30°60' W 043°54'0 1.4 21.2
2015-Jan-26 09:49N 30°60' W 043°54'0 1.5 21.2
2015-Jan-26 09:45N 30°60' W 043°54'0 0.0 21.2
2015-Jan-26 09:19N 30°60' W 043°54'0 3.7 21.2
2015-Jan-26 09:12N 31°00' W 043°54'0 0.0 21.2
2015-Jan-26 08:34N 31°00' W 043°54'1 2.2 21.2
2015-Jan-26 08:09N 31°01' W 043°55'0 0.0 21.2
2015-Jan-26 07:35N 31°01' W 043°55'0 0.0 21.2
2015-Jan-26 06:52N 31°01' W 043°55'1 0.6 21.2
2015-Jan-26 05:59N 31°01' W 043°54'0 0.0 21.2
2015-Jan-26 04:24N 31°01' W 043°54'2 0.6 21.2
2015-Jan-26 01:12N 31°01' W 043°52'0 0.6 21.2
2015-Jan-26 00:31N 31°01' W 043°53'0 0.0 21.2
2015-Jan-25 23:37N 31°01' W 043°53'0 0.0 21.2
2015-Jan-25 23:34N 31°01' W 043°53'1 1.0 21.2
2015-Jan-25 22:49N 31°02' W 043°53'122.1 21.2
2015-Jan-25 22:46N 31°03' W 043°52'0 0.0 21.2
2015-Jan-25 21:34N 31°03' W 043°52'0 0.7 21.2
2015-Jan-25 21:11N 31°03' W 043°52'0 0.6 21.3
2015-Jan-25 20:55N 31°02' W 043°52'1 1.0 21.2
2015-Jan-25 19:56N 31°03' W 043°52'0 0.0 21.2
2015-Jan-25 19:38N 31°03' W 043°52'2 3.7 21.3
2015-Jan-25 19:12N 31°04' W 043°50'0 0.0 21.3
2015-Jan-25 19:10N 31°04' W 043°50'0 0.5 21.3
2015-Jan-25 18:13N 31°04' W 043°51'0 1.2 21.3
2015-Jan-25 18:07N 31°04' W 043°51'0 0.0
2015-Jan-25 17:41N 31°04' W 043°51'0 3.1 21.3
2015-Jan-25 17:34N 31°04' W 043°51'0 0.0 21.3
2015-Jan-25 15:59N 31°04' W 043°51'1 0.7 21.3
2015-Jan-25 13:58N 31°04' W 043°49'0 0.1 21.3
2015-Jan-25 12:20N 31°04' W 043°49'1 6.9 21.2
2015-Jan-25 12:11N 31°05' W 043°48'0 0.0 21.2
2015-Jan-25 11:26N 31°05' W 043°48'0 0.4 21.2
2015-Jan-25 10:13N 31°05' W 043°48'0 0.0 21.2
2015-Jan-25 09:34N 31°05' W 043°48'0 0.0 21.2
2015-Jan-25 09:30N 31°05' W 043°48'113.1 21.2
2015-Jan-25 09:27N 31°05' W 043°48'0 1.2 21.2
2015-Jan-25 09:05N 31°05' W 043°48'0 0.8 21.2
2015-Jan-25 08:31N 31°05' W 043°48'1 1.0 21.2
2015-Jan-25 07:47N 31°05' W 043°47'0 0.5 21.2
2015-Jan-25 07:24N 31°05' W 043°47'0 0.1 21.2
2015-Jan-25 06:55N 31°05' W 043°47'0 0.1 21.2
2015-Jan-25 06:12N 31°05' W 043°47'014.3 21.2
2015-Jan-25 06:11N 31°06' W 043°47'0 0.0 21.2
2015-Jan-25 06:05N 31°06' W 043°47'0 0.0 21.2
2015-Jan-25 04:36N 31°06' W 043°47'111.7 21.2
2015-Jan-25 04:31N 31°05' W 043°49'225.5 21.2
2015-Jan-25 04:27N 31°05' W 043°47'0 0.1 21.2
2015-Jan-25 01:32N 31°05' W 043°46'0 0.6 21.2
2015-Jan-25 00:51N 31°04' W 043°46'0 0.0 21.2
2015-Jan-24 23:58N 31°04' W 043°46'1 1.7 21.2
2015-Jan-24 23:26N 31°04' W 043°45'0 0.0 21.2
2015-Jan-24 23:10N 31°04' W 043°45'1 0.5 21.2
2015-Jan-24 21:51N 31°04' W 043°45'1 1.4 21.2
2015-Jan-24 21:03N 31°04' W 043°43'0 0.0 21.2
2015-Jan-24 20:20N 31°04' W 043°43'1 6.8 21.2
2015-Jan-24 20:13N 31°05' W 043°43'128.6 21.2
2015-Jan-24 20:11N 31°04' W 043°44'111.4 21.2
2015-Jan-24 20:06N 31°05' W 043°43'0 0.0 21.2
2015-Jan-24 19:27N 31°05' W 043°43'0 0.0 21.3
2015-Jan-24 19:21N 31°05' W 043°43'0 0.2 21.3
2015-Jan-24 18:39N 31°05' W 043°43'1 0.8 21.3
2015-Jan-24 17:52N 31°05' W 043°42'1 3.9 21.3
2015-Jan-24 17:43N 31°06' W 043°42'0 0.0 21.3
2015-Jan-24 16:11N 31°06' W 043°42'1 0.7 21.3
2015-Jan-24 14:25N 31°06' W 043°40'0 0.0 21.2
2015-Jan-24 14:20N 31°06' W 043°40'0 0.0 21.2
2015-Jan-24 13:32N 31°06' W 043°40'0 1.4 21.2
2015-Jan-24 13:25N 31°06' W 043°41'0 0.0 21.2
2015-Jan-24 12:37N 31°06' W 043°41'0 3.1 21.2
2015-Jan-24 12:31N 31°06' W 043°41'0 0.2 21.2
2015-Jan-24 11:47N 31°06' W 043°41'0 0.0 21.2
2015-Jan-24 10:55N 31°06' W 043°41'0 0.0 21.2
2015-Jan-24 08:59N 31°06' W 043°41'1 0.5 21.3
2015-Jan-24 07:58N 31°06' W 043°42'132.7 21.3
2015-Jan-24 07:57N 31°06' W 043°42'0 0.3 21.3
2015-Jan-24 07:21N 31°05' W 043°42'0 0.0 21.3
2015-Jan-24 06:29N 31°05' W 043°42'0 2.7 21.3
2015-Jan-24 06:22N 31°05' W 043°42'1 7.8 21.3
2015-Jan-24 06:17N 31°05' W 043°42'0 0.0 21.3
2015-Jan-24 04:46N 31°05' W 043°42'214.9 21.3
2015-Jan-24 04:39N 31°03' W 043°42'0 0.0 21.3
2015-Jan-24 01:56N 31°03' W 043°42'0 7.8 21.3
2015-Jan-24 01:53N 31°03' W 043°42'0 0.4 21.3
2015-Jan-24 01:10N 31°03' W 043°42'0 2.9 21.3
2015-Jan-24 01:05N 31°03' W 043°42'0 0.0 21.3
2015-Jan-24 00:20N 31°03' W 043°42'0 0.9 21.3
2015-Jan-24 00:13N 31°03' W 043°42'0 0.4 21.3
2015-Jan-23 23:32N 31°03' W 043°42'0 4.3 21.3
2015-Jan-23 23:27N 31°03' W 043°41'0 0.0 21.3
2015-Jan-23 22:38N 31°03' W 043°41'0 1.3 21.3
2015-Jan-23 22:24N 31°02' W 043°41'0 0.1 21.3
2015-Jan-23 20:44N 31°02' W 043°42'0 0.2 21.3
2015-Jan-23 19:38N 31°02' W 043°42'0 1.6 21.3
2015-Jan-23 19:31N 31°02' W 043°42'0 0.0 21.3
2015-Jan-23 19:04N 31°02' W 043°42'0 1.2 21.3
2015-Jan-23 18:56N 31°02' W 043°42'0 0.1 21.3
2015-Jan-23 18:02N 31°02' W 043°42'1 4.7 21.4
2015-Jan-23 17:55N 31°03' W 043°42'1 0.5 21.4
2015-Jan-23 16:22N 31°02' W 043°42'1 0.5 21.4
2015-Jan-23 14:39N 31°01' W 043°42'0 0.0 21.3
2015-Jan-23 13:54N 31°01' W 043°42'0 0.5 21.3
2015-Jan-23 12:59N 31°01' W 043°42'1 0.8 21.3
2015-Jan-23 12:07N 30°60' W 043°41'0 0.0 21.3
2015-Jan-23 11:21N 30°60' W 043°41'0 2.0 21.3
2015-Jan-23 11:15N 30°60' W 043°41'0 0.0 21.3
2015-Jan-23 10:06N 30°60' W 043°41'0 0.9 21.3
2015-Jan-23 09:53N 30°60' W 043°41'1 1.3 21.3
2015-Jan-23 09:23N 30°59' W 043°40'0 6.3 21.3
2015-Jan-23 09:20N 30°59' W 043°41'0 0.4 21.3
2015-Jan-23 08:10N 30°60' W 043°40'0 0.0 21.3
2015-Jan-23 07:45N 30°60' W 043°40'0 0.0 21.3
2015-Jan-23 06:46N 30°60' W 043°40'0 0.0 21.3
2015-Jan-23 06:41N 30°60' W 043°40'0 1.6 21.3
2015-Jan-23 06:34N 30°60' W 043°40'0 1.7 21.3
2015-Jan-23 06:28N 30°60' W 043°40'0 0.1 21.3
2015-Jan-23 04:57N 30°60' W 043°40'1 9.4 21.4
2015-Jan-23 04:52N 30°59' W 043°40'0 0.0 21.4
2015-Jan-23 01:27N 30°59' W 043°40'0 0.0 21.3
2015-Jan-23 00:41N 30°59' W 043°40'0 0.0 21.3
2015-Jan-23 00:37N 30°59' W 043°40'1 0.7 21.3
2015-Jan-22 23:52N 30°59' W 043°40'0 2.4 21.3
2015-Jan-22 23:49N 30°59' W 043°40'0 3.7
2015-Jan-22 23:45N 30°58' W 043°40'0 0.0 21.3
2015-Jan-22 22:59N 30°58' W 043°40'117.0 21.3
2015-Jan-22 22:54N 30°58' W 043°39'0 0.0 21.3
2015-Jan-22 21:08N 30°58' W 043°39'0 0.3 21.3
2015-Jan-22 19:50N 30°58' W 043°39'0 0.5 21.3
2015-Jan-22 19:30N 30°57' W 043°39'010.7 21.3
2015-Jan-22 19:28N 30°58' W 043°39'0 0.0 21.3
2015-Jan-22 18:12N 30°58' W 043°39'0 0.9 21.3
2015-Jan-22 18:08N 30°58' W 043°39'0 0.9 21.3
2015-Jan-22 17:45N 30°57' W 043°39'0 0.0 21.3
2015-Jan-22 16:34N 30°57' W 043°39'1 0.3 21.3
2015-Jan-22 14:50N 30°57' W 043°38'0 0.0 21.3
2015-Jan-22 14:13N 30°57' W 043°38'0 0.2 21.3
2015-Jan-22 12:31N 30°57' W 043°38'0 4.7 21.3
2015-Jan-22 12:26N 30°57' W 043°37'0 0.0 21.3
2015-Jan-22 11:39N 30°57' W 043°37'113.8 21.4
2015-Jan-22 11:36N 30°56' W 043°37'0 0.0 21.4
2015-Jan-22 10:33N 30°56' W 043°37'0 0.0 21.3
2015-Jan-22 09:54N 30°56' W 043°37'1 6.2 21.3
2015-Jan-22 09:47N 30°56' W 043°36'1 0.4 21.3
2015-Jan-22 08:22N 30°56' W 043°36'0 0.0 21.3
2015-Jan-22 07:19N 30°56' W 043°36'0 0.4 21.3
2015-Jan-22 06:51N 30°56' W 043°36'0 1.5 21.3
2015-Jan-22 06:38N 30°56' W 043°35'0 0.0 21.3
2015-Jan-22 05:09N 30°56' W 043°35'0 0.3 21.3
2015-Jan-22 03:27N 30°56' W 043°35'0 0.2 21.3
2015-Jan-22 01:47N 30°56' W 043°35'0 0.0 21.3
2015-Jan-22 00:57N 30°56' W 043°35'0 0.6 21.3
2015-Jan-22 00:13N 30°56' W 043°35'0 4.7 21.3
2015-Jan-22 00:08N 30°55' W 043°35'0 0.0 21.3
2015-Jan-21 23:21N 30°55' W 043°35'0 1.4 21.3
2015-Jan-21 23:14N 30°55' W 043°35'0 0.0 21.3
2015-Jan-21 22:33N 30°55' W 043°35'1 6.1 21.3
2015-Jan-21 22:26N 30°55' W 043°35'0 0.0
2015-Jan-21 21:47N 30°55' W 043°35'   21.3
Track history (hours):
 
Tides and Currents Weather Stations Pressure Air Temp Water Temp Dewpoint Dewpoint Depression Visibility Wind Speed Wind Dir Waves Ship Positions

Drifting buoy 41991

Last reported at 2015-Jan-31 21:33 UTC. Time now 2015-Jan-31 22:42 UTC.
Position N 29°58' W 044°17'.

Water temperature 21.5 ° C

Date/timePositionNaut miles runAvg speedWind from/ knotsBaromVisibWave heightAir tempDewpointWater temp
2015-Jan-31 21:33N 29°58' W 044°17'0 2.9 21.5
2015-Jan-31 21:24N 29°58' W 044°17'0 0.5 21.5
2015-Jan-31 20:46N 29°58' W 044°18'0 0.0 21.6
2015-Jan-31 19:51N 29°58' W 044°18'0 2.1 21.6
2015-Jan-31 19:48N 29°58' W 044°17'0 0.3 21.6
2015-Jan-31 19:05N 29°58' W 044°17'0 0.3 21.6
2015-Jan-31 18:13N 29°59' W 044°18'1 6.5 21.6
2015-Jan-31 18:06N 29°59' W 044°17'0 0.0 21.6
2015-Jan-31 16:35N 29°59' W 044°17'2 1.2 21.6
2015-Jan-31 14:50N 30°01' W 044°18'0 0.0 21.5
2015-Jan-31 14:28N 30°01' W 044°18'0 0.0 21.5
2015-Jan-31 13:37N 30°01' W 044°18'0 0.0 21.5
2015-Jan-31 12:50N 30°01' W 044°18'0 4.0 21.5
2015-Jan-31 12:45N 30°01' W 044°17'0 3.8 21.5
2015-Jan-31 12:40N 30°01' W 044°18'1 1.0 21.5
2015-Jan-31 11:50N 30°02' W 044°18'0 0.2 21.5
2015-Jan-31 09:59N 30°02' W 044°17'0 0.0 21.5
2015-Jan-31 09:29N 30°02' W 044°17'0 0.0 21.5
2015-Jan-31 09:25N 30°02' W 044°17'0 3.6 21.5
2015-Jan-31 09:22N 30°02' W 044°17'0 2.1 21.5
2015-Jan-31 09:13N 30°02' W 044°18'0 0.4 21.5
2015-Jan-31 08:21N 30°02' W 044°17'1 7.8 21.4
2015-Jan-31 08:17N 30°03' W 044°18'0 0.0 21.4
2015-Jan-31 07:49N 30°03' W 044°18'0 0.7 21.4
2015-Jan-31 07:35N 30°03' W 044°17'0 0.1 21.4
2015-Jan-31 06:52N 30°03' W 044°17'0 2.4 21.4
2015-Jan-31 06:43N 30°03' W 044°17'1 0.4 21.4
2015-Jan-31 05:08N 30°04' W 044°17'1 0.9 21.4
2015-Jan-31 03:28N 30°05' W 044°16'1 0.4 21.4
2015-Jan-31 01:13N 30°06' W 044°16'110.5 21.3
2015-Jan-31 01:08N 30°07' W 044°17'0 0.0 21.3
2015-Jan-31 00:27N 30°07' W 044°17'0 0.0 21.3
2015-Jan-30 23:35N 30°07' W 044°17'1 6.5 21.3
2015-Jan-30 23:29N 30°07' W 044°17'0 0.0 21.3
2015-Jan-30 22:47N 30°07' W 044°17'1 6.9 21.2
2015-Jan-30 22:41N 30°07' W 044°16'0 0.0 21.2
2015-Jan-30 21:59N 30°07' W 044°16'1 0.6 21.2
2015-Jan-30 21:10N 30°08' W 044°16'0 0.4 21.3
2015-Jan-30 20:22N 30°08' W 044°17'1 6.8 21.3
2015-Jan-30 20:15N 30°08' W 044°16'0 0.3 21.3
2015-Jan-30 19:57N 30°08' W 044°16'1 1.4 21.3
2015-Jan-30 19:32N 30°08' W 044°16'116.6 21.3
2015-Jan-30 19:29N 30°08' W 044°16'0 0.2 21.3
2015-Jan-30 18:25N 30°08' W 044°16'2 9.9 21.3
2015-Jan-30 18:14N 30°10' W 044°15'0 0.0 21.4
2015-Jan-30 16:45N 30°10' W 044°15'0 0.0 21.3
2015-Jan-30 16:39N 30°10' W 044°15'0 0.0 21.3
2015-Jan-30 14:58N 30°10' W 044°15'1 1.1 21.3
2015-Jan-30 13:57N 30°11' W 044°14'0 0.0 21.3
2015-Jan-30 13:11N 30°11' W 044°14'2 2.1 21.3
2015-Jan-30 12:12N 30°13' W 044°15'0 0.2 21.3
2015-Jan-30 11:29N 30°13' W 044°14'1 0.3 21.3
2015-Jan-30 09:49N 30°13' W 044°15'117.4 21.3
2015-Jan-30 09:47N 30°13' W 044°14'1 0.4 21.3
2015-Jan-30 08:32N 30°13' W 044°15'0 6.3 21.3
2015-Jan-30 08:29N 30°14' W 044°14'0 0.0 21.3
2015-Jan-30 08:11N 30°14' W 044°14'0 0.0 21.4
2015-Jan-30 08:06N 30°14' W 044°14'1 0.7 21.4
2015-Jan-30 06:58N 30°14' W 044°15'0 0.3 21.4
2015-Jan-30 05:20N 30°15' W 044°15'1 7.1 21.4
2015-Jan-30 05:13N 30°15' W 044°14'0 0.0 21.4
2015-Jan-30 03:40N 30°15' W 044°14'2 0.9 21.4
2015-Jan-30 01:28N 30°17' W 044°13'0 0.0 21.4
2015-Jan-30 00:45N 30°17' W 044°13'1 0.9 21.4
2015-Jan-29 23:55N 30°17' W 044°14'0 3.2 21.4
2015-Jan-29 23:52N 30°17' W 044°14'1 1.0 21.4
2015-Jan-29 23:07N 30°17' W 044°13'0 5.7 21.4
2015-Jan-29 23:02N 30°17' W 044°12'0 0.0 21.4
2015-Jan-29 22:58N 30°17' W 044°12'0 0.0 21.4
2015-Jan-29 22:33N 30°17' W 044°12'0 0.4 21.4
2015-Jan-29 21:34N 30°18' W 044°12'1 1.0 21.4
2015-Jan-29 20:57N 30°18' W 044°12'1 1.1 21.4
2015-Jan-29 20:11N 30°19' W 044°11'0 0.0 21.4
2015-Jan-29 19:56N 30°19' W 044°11'115.0 21.4
2015-Jan-29 19:51N 30°20' W 044°11'0 0.0 21.4
2015-Jan-29 18:33N 30°20' W 044°11'0 4.6
2015-Jan-29 18:29N 30°20' W 044°11'1 3.8 21.4
2015-Jan-29 18:13N 30°21' W 044°10'0 0.0 21.4
2015-Jan-29 16:56N 30°21' W 044°10'3 1.7 21.4
2015-Jan-29 15:13N 30°24' W 044°09'0 0.0 21.4
2015-Jan-29 14:18N 30°24' W 044°09'0 0.0 21.3
2015-Jan-29 13:29N 30°24' W 044°09'1 7.0 21.3
2015-Jan-29 13:22N 30°24' W 044°10'1 1.2 21.3
2015-Jan-29 12:29N 30°25' W 044°10'0 0.1 21.3
2015-Jan-29 10:19N 30°25' W 044°10'115.8 21.3
2015-Jan-29 10:15N 30°26' W 044°09'0 0.0 21.3
2015-Jan-29 08:46N 30°26' W 044°09'0 0.0 21.3
2015-Jan-29 08:39N 30°26' W 044°09'1 0.7 21.3
2015-Jan-29 07:11N 30°27' W 044°09'0 1.2 21.3
2015-Jan-29 07:08N 30°27' W 044°09'1 6.4 21.3
2015-Jan-29 06:59N 30°28' W 044°08'0 0.0 21.3
2015-Jan-29 05:31N 30°28' W 044°08'3 1.9 21.3
2015-Jan-29 03:50N 30°31' W 044°08'0 0.0 21.3
2015-Jan-29 01:54N 30°31' W 044°08'0 0.0 21.3
2015-Jan-29 01:06N 30°31' W 044°08'112.9 21.3
2015-Jan-29 01:02N 30°31' W 044°07'0 0.1 21.3
2015-Jan-29 00:12N 30°31' W 044°07'1 1.1 21.3
2015-Jan-28 23:26N 30°32' W 044°08'0 5.1 21.3
2015-Jan-28 23:22N 30°32' W 044°07'0 0.0 21.3
2015-Jan-28 23:03N 30°32' W 044°07'0 0.9 21.3
2015-Jan-28 22:34N 30°32' W 044°08'243.1 21.3
2015-Jan-28 22:31N 30°34' W 044°06'0 0.3 21.3
2015-Jan-28 21:57N 30°34' W 044°06'0 0.0 21.3
2015-Jan-28 21:28N 30°34' W 044°06'0 0.2 21.3
2015-Jan-28 20:22N 30°34' W 044°06'134.2 21.3
2015-Jan-28 20:20N 30°35' W 044°06'0 0.0 21.3
2015-Jan-28 19:45N 30°35' W 044°06'1 1.0 21.3
2015-Jan-28 18:41N 30°35' W 044°05'0 0.0 21.3
2015-Jan-28 17:08N 30°35' W 044°05'1 0.7 21.3
2015-Jan-28 15:26N 30°37' W 044°05'1 0.9 21.3
2015-Jan-28 14:34N 30°37' W 044°05'0 0.3 21.3
2015-Jan-28 13:50N 30°38' W 044°05'1 1.2 21.3
2015-Jan-28 12:53N 30°39' W 044°05'2 1.1 21.3
2015-Jan-28 11:11N 30°40' W 044°04'0 0.0 21.2
2015-Jan-28 10:39N 30°40' W 044°04'0 0.0 21.2
2015-Jan-28 09:10N 30°40' W 044°04'0 2.1 21.2
2015-Jan-28 08:57N 30°40' W 044°04'117.6 21.2
2015-Jan-28 08:52N 30°42' W 044°03'0 0.0 21.2
2015-Jan-28 07:30N 30°42' W 044°03'1 3.1 21.2
2015-Jan-28 07:09N 30°43' W 044°03'0 0.0 21.2
2015-Jan-28 05:41N 30°43' W 044°03'1 0.8 21.2
2015-Jan-28 03:58N 30°44' W 044°04'122.3 21.2
2015-Jan-28 03:56N 30°44' W 044°03'0 0.0 21.2
2015-Jan-28 02:11N 30°44' W 044°03'0 0.0 21.3
2015-Jan-28 01:28N 30°44' W 044°03'0 0.5 21.2
2015-Jan-28 00:34N 30°44' W 044°03'1 0.7 21.3
2015-Jan-27 23:46N 30°45' W 044°03'0 0.0 21.3
2015-Jan-27 23:41N 30°45' W 044°03'0 0.0 21.3
2015-Jan-27 22:55N 30°45' W 044°03'1 0.7 21.3
2015-Jan-27 21:58N 30°45' W 044°03'1 0.8 21.3
2015-Jan-27 20:46N 30°46' W 044°02'0 1.1 21.3
2015-Jan-27 20:30N 30°46' W 044°02'0 0.0 21.3
2015-Jan-27 20:12N 30°46' W 044°02'018.9 21.3
2015-Jan-27 20:11N 30°46' W 044°02'121.7 21.3
2015-Jan-27 20:09N 30°47' W 044°02'0 0.1 21.3
2015-Jan-27 19:06N 30°47' W 044°02'1 7.4 21.3
2015-Jan-27 18:54N 30°48' W 044°01'0 0.1 21.3
2015-Jan-27 17:19N 30°48' W 044°01'1 0.7 21.3
2015-Jan-27 15:38N 30°49' W 044°01'1 0.7 21.3
2015-Jan-27 14:10N 30°50' W 044°00'1 0.3 21.2
2015-Jan-27 12:30N 30°50' W 043°60'1 9.8 21.2
2015-Jan-27 12:23N 30°51' W 044°00'0 0.2 21.2
2015-Jan-27 11:35N 30°52' W 044°00'117.6 21.2
2015-Jan-27 11:32N 30°52' W 044°00'0 0.0 21.2
2015-Jan-27 09:37N 30°52' W 044°00'0 0.3 21.1
2015-Jan-27 09:23N 30°52' W 044°00'0 0.0 21.1
2015-Jan-27 09:07N 30°52' W 044°00'110.8 21.1
2015-Jan-27 09:04N 30°53' W 044°00'0 0.0 21.1
2015-Jan-27 07:58N 30°53' W 044°00'0 0.5 21.1
2015-Jan-27 07:29N 30°53' W 044°00'1 5.4 21.1
2015-Jan-27 07:22N 30°54' W 043°60'0 0.1 21.1
2015-Jan-27 05:53N 30°54' W 043°59'1 0.5 21.1
2015-Jan-27 04:11N 30°54' W 043°60'220.8 21.2
2015-Jan-27 04:06N 30°55' W 043°58'0 0.0 21.2
2015-Jan-27 00:57N 30°55' W 043°58'1 0.8 21.2
2015-Jan-27 00:10N 30°55' W 043°58'0 0.0 21.3
2015-Jan-27 00:09N 30°55' W 043°58'1 1.0 21.3
2015-Jan-26 23:12N 30°55' W 043°58'0 8.2 21.3
2015-Jan-26 23:10N 30°55' W 043°57'0 0.0 21.3
2015-Jan-26 22:29N 30°55' W 043°57'1 9.5 21.3
2015-Jan-26 22:25N 30°56' W 043°57'0 0.0 21.3
2015-Jan-26 21:10N 30°56' W 043°57'0 0.4 21.2
2015-Jan-26 20:44N 30°56' W 043°57'0 5.9 21.3
2015-Jan-26 20:40N 30°56' W 043°57'0 0.0 21.3
2015-Jan-26 19:30N 30°56' W 043°57'0 7.8 21.3
2015-Jan-26 19:27N 30°56' W 043°57'0 0.0 21.3
2015-Jan-26 19:05N 30°56' W 043°57'1 0.7 21.3
2015-Jan-26 17:29N 30°57' W 043°56'1 0.3 21.4
2015-Jan-26 15:49N 30°57' W 043°56'1 0.5 21.4
2015-Jan-26 14:27N 30°57' W 043°55'1 0.9 21.3
2015-Jan-26 13:41N 30°58' W 043°54'0 0.6 21.2
2015-Jan-26 12:54N 30°58' W 043°54'1 5.1 21.2
2015-Jan-26 12:46N 30°59' W 043°55'0 0.0 21.2
2015-Jan-26 11:57N 30°59' W 043°55'110.2 21.2
2015-Jan-26 11:52N 30°60' W 043°54'0 0.0 21.2
2015-Jan-26 11:06N 30°60' W 043°54'0 0.0 21.2
2015-Jan-26 10:12N 30°60' W 043°54'0 0.6 21.2
2015-Jan-26 09:54N 30°60' W 043°54'0 1.4 21.2
2015-Jan-26 09:49N 30°60' W 043°54'0 1.5 21.2
2015-Jan-26 09:45N 30°60' W 043°54'0 0.0 21.2
2015-Jan-26 09:19N 30°60' W 043°54'0 3.7 21.2
2015-Jan-26 09:12N 31°00' W 043°54'0 0.0 21.2
2015-Jan-26 08:34N 31°00' W 043°54'1 2.2 21.2
2015-Jan-26 08:09N 31°01' W 043°55'0 0.0 21.2
2015-Jan-26 07:35N 31°01' W 043°55'0 0.0 21.2
2015-Jan-26 06:52N 31°01' W 043°55'1 0.6 21.2
2015-Jan-26 05:59N 31°01' W 043°54'0 0.0 21.2
2015-Jan-26 04:24N 31°01' W 043°54'2 0.6 21.2
2015-Jan-26 01:12N 31°01' W 043°52'0 0.6 21.2
2015-Jan-26 00:31N 31°01' W 043°53'0 0.0 21.2
2015-Jan-25 23:37N 31°01' W 043°53'0 0.0 21.2
2015-Jan-25 23:34N 31°01' W 043°53'1 1.0 21.2
2015-Jan-25 22:49N 31°02' W 043°53'122.1 21.2
2015-Jan-25 22:46N 31°03' W 043°52'0 0.0 21.2
2015-Jan-25 21:34N 31°03' W 043°52'0 0.7 21.2
2015-Jan-25 21:11N 31°03' W 043°52'0 0.6 21.3
2015-Jan-25 20:55N 31°02' W 043°52'1 1.0 21.2
2015-Jan-25 19:56N 31°03' W 043°52'0 0.0 21.2
2015-Jan-25 19:38N 31°03' W 043°52'2 3.7 21.3
2015-Jan-25 19:12N 31°04' W 043°50'0 0.0 21.3
2015-Jan-25 19:10N 31°04' W 043°50'0 0.5 21.3
2015-Jan-25 18:13N 31°04' W 043°51'0 1.2 21.3
2015-Jan-25 18:07N 31°04' W 043°51'0 0.0
2015-Jan-25 17:41N 31°04' W 043°51'0 3.1 21.3
2015-Jan-25 17:34N 31°04' W 043°51'0 0.0 21.3
2015-Jan-25 15:59N 31°04' W 043°51'1 0.7 21.3
2015-Jan-25 13:58N 31°04' W 043°49'0 0.1 21.3
2015-Jan-25 12:20N 31°04' W 043°49'1 6.9 21.2
2015-Jan-25 12:11N 31°05' W 043°48'0 0.0 21.2
2015-Jan-25 11:26N 31°05' W 043°48'0 0.4 21.2
2015-Jan-25 10:13N 31°05' W 043°48'0 0.0 21.2
2015-Jan-25 09:34N 31°05' W 043°48'0 0.0 21.2
2015-Jan-25 09:30N 31°05' W 043°48'113.1 21.2
2015-Jan-25 09:27N 31°05' W 043°48'0 1.2 21.2
2015-Jan-25 09:05N 31°05' W 043°48'0 0.8 21.2
2015-Jan-25 08:31N 31°05' W 043°48'1 1.0 21.2
2015-Jan-25 07:47N 31°05' W 043°47'0 0.5 21.2
2015-Jan-25 07:24N 31°05' W 043°47'0 0.1 21.2
2015-Jan-25 06:55N 31°05' W 043°47'0 0.1 21.2
2015-Jan-25 06:12N 31°05' W 043°47'014.3 21.2
2015-Jan-25 06:11N 31°06' W 043°47'0 0.0 21.2
2015-Jan-25 06:05N 31°06' W 043°47'0 0.0 21.2
2015-Jan-25 04:36N 31°06' W 043°47'111.7 21.2
2015-Jan-25 04:31N 31°05' W 043°49'225.5 21.2
2015-Jan-25 04:27N 31°05' W 043°47'0 0.1 21.2
2015-Jan-25 01:32N 31°05' W 043°46'0 0.6 21.2
2015-Jan-25 00:51N 31°04' W 043°46'0 0.0 21.2
2015-Jan-24 23:58N 31°04' W 043°46'1 1.7 21.2
2015-Jan-24 23:26N 31°04' W 043°45'0 0.0 21.2
2015-Jan-24 23:10N 31°04' W 043°45'1 0.5 21.2
2015-Jan-24 21:51N 31°04' W 043°45'1 1.4 21.2
2015-Jan-24 21:03N 31°04' W 043°43'0 0.0 21.2
2015-Jan-24 20:20N 31°04' W 043°43'1 6.8 21.2
2015-Jan-24 20:13N 31°05' W 043°43'128.6 21.2
2015-Jan-24 20:11N 31°04' W 043°44'111.4 21.2
2015-Jan-24 20:06N 31°05' W 043°43'0 0.0 21.2
2015-Jan-24 19:27N 31°05' W 043°43'0 0.0 21.3
2015-Jan-24 19:21N 31°05' W 043°43'0 0.2 21.3
2015-Jan-24 18:39N 31°05' W 043°43'1 0.8 21.3
2015-Jan-24 17:52N 31°05' W 043°42'1 3.9 21.3
2015-Jan-24 17:43N 31°06' W 043°42'0 0.0 21.3
2015-Jan-24 16:11N 31°06' W 043°42'1 0.7 21.3
2015-Jan-24 14:25N 31°06' W 043°40'0 0.0 21.2
2015-Jan-24 14:20N 31°06' W 043°40'0 0.0 21.2
2015-Jan-24 13:32N 31°06' W 043°40'0 1.4 21.2
2015-Jan-24 13:25N 31°06' W 043°41'0 0.0 21.2
2015-Jan-24 12:37N 31°06' W 043°41'0 3.1 21.2
2015-Jan-24 12:31N 31°06' W 043°41'0 0.2 21.2
2015-Jan-24 11:47N 31°06' W 043°41'0 0.0 21.2
2015-Jan-24 10:55N 31°06' W 043°41'0 0.0 21.2
2015-Jan-24 08:59N 31°06' W 043°41'1 0.5 21.3
2015-Jan-24 07:58N 31°06' W 043°42'132.7 21.3
2015-Jan-24 07:57N 31°06' W 043°42'0 0.3 21.3
2015-Jan-24 07:21N 31°05' W 043°42'0 0.0 21.3
2015-Jan-24 06:29N 31°05' W 043°42'0 2.7 21.3
2015-Jan-24 06:22N 31°05' W 043°42'1 7.8 21.3
2015-Jan-24 06:17N 31°05' W 043°42'0 0.0 21.3
2015-Jan-24 04:46N 31°05' W 043°42'214.9 21.3
2015-Jan-24 04:39N 31°03' W 043°42'0 0.0 21.3
2015-Jan-24 01:56N 31°03' W 043°42'0 7.8 21.3
2015-Jan-24 01:53N 31°03' W 043°42'0 0.4 21.3
2015-Jan-24 01:10N 31°03' W 043°42'0 2.9 21.3
2015-Jan-24 01:05N 31°03' W 043°42'0 0.0 21.3
2015-Jan-24 00:20N 31°03' W 043°42'0 0.9 21.3
2015-Jan-24 00:13N 31°03' W 043°42'0 0.4 21.3
2015-Jan-23 23:32N 31°03' W 043°42'0 4.3 21.3
2015-Jan-23 23:27N 31°03' W 043°41'0 0.0 21.3
2015-Jan-23 22:38N 31°03' W 043°41'0 1.3 21.3
2015-Jan-23 22:24N 31°02' W 043°41'0 0.1 21.3
2015-Jan-23 20:44N 31°02' W 043°42'0 0.2 21.3
2015-Jan-23 19:38N 31°02' W 043°42'0 1.6 21.3
2015-Jan-23 19:31N 31°02' W 043°42'0 0.0 21.3
2015-Jan-23 19:04N 31°02' W 043°42'0 1.2 21.3
2015-Jan-23 18:56N 31°02' W 043°42'0 0.1 21.3
2015-Jan-23 18:02N 31°02' W 043°42'1 4.7 21.4
2015-Jan-23 17:55N 31°03' W 043°42'1 0.5 21.4
2015-Jan-23 16:22N 31°02' W 043°42'1 0.5 21.4
2015-Jan-23 14:39N 31°01' W 043°42'0 0.0 21.3
2015-Jan-23 13:54N 31°01' W 043°42'0 0.5 21.3
2015-Jan-23 12:59N 31°01' W 043°42'1 0.8 21.3
2015-Jan-23 12:07N 30°60' W 043°41'0 0.0 21.3
2015-Jan-23 11:21N 30°60' W 043°41'0 2.0 21.3
2015-Jan-23 11:15N 30°60' W 043°41'0 0.0 21.3
2015-Jan-23 10:06N 30°60' W 043°41'0 0.9 21.3
2015-Jan-23 09:53N 30°60' W 043°41'1 1.3 21.3
2015-Jan-23 09:23N 30°59' W 043°40'0 6.3 21.3
2015-Jan-23 09:20N 30°59' W 043°41'0 0.4 21.3
2015-Jan-23 08:10N 30°60' W 043°40'0 0.0 21.3
2015-Jan-23 07:45N 30°60' W 043°40'0 0.0 21.3
2015-Jan-23 06:46N 30°60' W 043°40'0 0.0 21.3
2015-Jan-23 06:41N 30°60' W 043°40'0 1.6 21.3
2015-Jan-23 06:34N 30°60' W 043°40'0 1.7 21.3
2015-Jan-23 06:28N 30°60' W 043°40'0 0.1 21.3
2015-Jan-23 04:57N 30°60' W 043°40'1 9.4 21.4
2015-Jan-23 04:52N 30°59' W 043°40'0 0.0 21.4
2015-Jan-23 01:27N 30°59' W 043°40'0 0.0 21.3
2015-Jan-23 00:41N 30°59' W 043°40'0 0.0 21.3
2015-Jan-23 00:37N 30°59' W 043°40'1 0.7 21.3
2015-Jan-22 23:52N 30°59' W 043°40'0 2.4 21.3
2015-Jan-22 23:49N 30°59' W 043°40'0 3.7
2015-Jan-22 23:45N 30°58' W 043°40'0 0.0 21.3
2015-Jan-22 22:59N 30°58' W 043°40'117.0 21.3
2015-Jan-22 22:54N 30°58' W 043°39'0 0.0 21.3
2015-Jan-22 21:08N 30°58' W 043°39'0 0.3 21.3
2015-Jan-22 19:50N 30°58' W 043°39'0 0.5 21.3
2015-Jan-22 19:30N 30°57' W 043°39'010.7 21.3
2015-Jan-22 19:28N 30°58' W 043°39'0 0.0 21.3
2015-Jan-22 18:12N 30°58' W 043°39'0 0.9 21.3
2015-Jan-22 18:08N 30°58' W 043°39'0 0.9 21.3
2015-Jan-22 17:45N 30°57' W 043°39'0 0.0 21.3
2015-Jan-22 16:34N 30°57' W 043°39'1 0.3 21.3
2015-Jan-22 14:50N 30°57' W 043°38'0 0.0 21.3
2015-Jan-22 14:13N 30°57' W 043°38'0 0.2 21.3
2015-Jan-22 12:31N 30°57' W 043°38'0 4.7 21.3
2015-Jan-22 12:26N 30°57' W 043°37'0 0.0 21.3
2015-Jan-22 11:39N 30°57' W 043°37'113.8 21.4
2015-Jan-22 11:36N 30°56' W 043°37'0 0.0 21.4
2015-Jan-22 10:33N 30°56' W 043°37'0 0.0 21.3
2015-Jan-22 09:54N 30°56' W 043°37'1 6.2 21.3
2015-Jan-22 09:47N 30°56' W 043°36'1 0.4 21.3
2015-Jan-22 08:22N 30°56' W 043°36'0 0.0 21.3
2015-Jan-22 07:19N 30°56' W 043°36'0 0.4 21.3
2015-Jan-22 06:51N 30°56' W 043°36'0 1.5 21.3
2015-Jan-22 06:38N 30°56' W 043°35'0 0.0 21.3
2015-Jan-22 05:09N 30°56' W 043°35'0 0.3 21.3
2015-Jan-22 03:27N 30°56' W 043°35'0 0.2 21.3
2015-Jan-22 01:47N 30°56' W 043°35'0 0.0 21.3
2015-Jan-22 00:57N 30°56' W 043°35'0 0.6 21.3
2015-Jan-22 00:13N 30°56' W 043°35'0 4.7 21.3
2015-Jan-22 00:08N 30°55' W 043°35'0 0.0 21.3
2015-Jan-21 23:21N 30°55' W 043°35'0 1.4 21.3
2015-Jan-21 23:14N 30°55' W 043°35'0 0.0 21.3
2015-Jan-21 22:33N 30°55' W 043°35'1 6.1 21.3
2015-Jan-21 22:26N 30°55' W 043°35'0 0.0
2015-Jan-21 21:47N 30°55' W 043°35'   21.3

Dump ship's entire track history